Time;durP1;ratioP1;P1;durP2;ratioP2;P2;SDS_P1;SDS_P2;PMS_P1;PMS_P2;Temp;Humidity;BMP_temperature;BMP_pressure;BME280_temperature;BME280_humidity;BME280_pressure;Samples;Min_cycle;Max_cycle;Signal;HPM_P1;HPM_P2
2021/03/12 00:02:05;;;;;;;4.35;1.75;;;9.80;99.90;;;;;;5033434;28;20203;-78
2021/03/12 00:04:31;;;;;;;2.78;1.75;;;9.80;99.90;;;;;;5030014;28;20262;-79
2021/03/12 00:06:58;;;;;;;3.85;1.60;;;9.80;99.90;;;;;;5033123;28;20430;-79
2021/03/12 00:09:24;;;;;;;6.57;1.75;;;9.70;99.90;;;;;;5032760;28;20230;-77
2021/03/12 00:11:52;;;;;;;2.28;1.40;;;9.80;99.90;;;;;;5031251;28;20712;-78
2021/03/12 00:14:18;;;;;;;3.00;2.10;;;9.90;99.90;;;;;;5033546;28;20330;-79
2021/03/12 00:16:45;;;;;;;5.70;2.13;;;9.70;99.90;;;;;;5024978;28;20224;-79
2021/03/12 00:19:11;;;;;;;3.33;1.20;;;9.80;99.90;;;;;;5032299;28;20227;-78
2021/03/12 00:21:37;;;;;;;5.95;2.00;;;9.70;99.90;;;;;;5029142;28;20212;-78
2021/03/12 00:24:04;;;;;;;5.63;1.95;;;9.70;99.90;;;;;;5028604;28;20219;-78
2021/03/12 00:26:31;;;;;;;5.10;2.00;;;9.70;99.90;;;;;;5032286;28;20223;-79
2021/03/12 00:28:58;;;;;;;2.20;1.80;;;9.80;99.90;;;;;;5031242;28;20191;-78
2021/03/12 00:31:24;;;;;;;2.50;2.28;;;9.70;99.90;;;;;;5014156;28;20213;-79
2021/03/12 00:33:50;;;;;;;2.40;1.58;;;9.70;99.90;;;;;;5015670;28;20876;-78
2021/03/12 00:36:16;;;;;;;3.15;1.70;;;9.70;99.90;;;;;;5032710;28;20219;-78
2021/03/12 00:38:43;;;;;;;2.45;1.80;;;9.90;99.90;;;;;;5031487;28;20215;-77
2021/03/12 00:41:09;;;;;;;5.30;2.33;;;9.70;99.90;;;;;;5029123;28;20211;-78
2021/03/12 00:43:36;;;;;;;3.80;1.60;;;9.70;99.90;;;;;;5031368;28;20774;-79
2021/03/12 00:46:06;;;;;;;2.40;1.55;;;9.70;99.90;;;;;;5031687;28;20215;-78
2021/03/12 00:48:32;;;;;;;2.60;1.90;;;9.50;99.90;;;;;;5031821;28;20223;-79
2021/03/12 00:51:00;;;;;;;3.25;1.85;;;9.70;99.90;;;;;;5030643;28;20694;-79
2021/03/12 00:53:26;;;;;;;2.78;1.98;;;9.60;99.90;;;;;;5032006;28;20192;-79
2021/03/12 00:55:53;;;;;;;4.28;2.50;;;9.60;99.90;;;;;;5028491;28;20602;-79
2021/03/12 00:58:21;;;;;;;3.15;2.10;;;9.50;99.90;;;;;;5031795;28;20226;-78
2021/03/12 01:00:47;;;;;;;4.65;2.45;;;9.60;99.90;;;;;;5029252;28;20215;-80
2021/03/12 01:03:14;;;;;;;5.50;2.60;;;9.60;99.90;;;;;;5032231;28;20203;-80
2021/03/12 01:05:41;;;;;;;2.30;1.80;;;9.50;99.90;;;;;;5025288;28;20734;-79
2021/03/12 01:08:08;;;;;;;3.78;2.45;;;9.60;99.90;;;;;;5023348;28;20219;-77
2021/03/12 01:10:35;;;;;;;4.50;2.00;;;9.60;99.90;;;;;;5030225;28;20219;-78
2021/03/12 01:13:02;;;;;;;3.78;2.20;;;9.60;99.90;;;;;;5023658;28;20764;-78
2021/03/12 01:15:28;;;;;;;2.50;2.17;;;9.60;99.90;;;;;;5025888;28;20273;-77
2021/03/12 01:17:56;;;;;;;4.78;2.58;;;9.50;99.90;;;;;;5031146;28;20654;-79
2021/03/12 01:20:25;;;;;;;6.10;2.80;;;9.50;99.90;;;;;;5029635;28;20238;-79
2021/03/12 01:22:52;;;;;;;6.03;3.05;;;9.40;99.90;;;;;;5029973;28;20230;-79
2021/03/12 01:25:20;;;;;;;4.25;2.80;;;9.60;99.90;;;;;;5023098;28;20746;-79
2021/03/12 01:27:47;;;;;;;4.78;3.22;;;9.50;99.90;;;;;;5031407;28;20192;-78
2021/03/12 01:30:18;;;;;;;2.45;2.25;;;9.50;99.90;;;;;;5027701;28;20219;-80
2021/03/12 01:32:45;;;;;;;2.85;2.17;;;9.50;99.90;;;;;;5032127;28;20212;-79
2021/03/12 01:35:12;;;;;;;4.75;2.72;;;9.40;99.90;;;;;;5029393;28;20216;-79
2021/03/12 01:37:39;;;;;;;4.55;2.58;;;9.40;99.90;;;;;;5030377;28;20253;-79
2021/03/12 01:40:07;;;;;;;3.35;2.33;;;9.40;99.90;;;;;;5027479;28;20227;-79
2021/03/12 01:42:34;;;;;;;2.55;2.35;;;9.50;99.90;;;;;;5031288;28;20200;-79
2021/03/12 01:45:00;;;;;;;3.50;2.80;;;9.40;99.90;;;;;;5028147;28;20227;-78
2021/03/12 01:47:27;;;;;;;4.38;2.88;;;9.50;99.90;;;;;;5031298;28;20709;-80
2021/03/12 01:49:53;;;;;;;3.60;2.92;;;9.30;99.90;;;;;;5031210;28;20223;-80
2021/03/12 01:52:19;;;;;;;4.00;2.50;;;9.40;99.90;;;;;;5026426;28;20193;-79
2021/03/12 01:54:47;;;;;;;8.75;2.80;;;9.50;99.90;;;;;;5020314;28;20266;-79
2021/03/12 01:57:13;;;;;;;5.43;2.78;;;9.40;99.90;;;;;;5031284;28;20694;-79
2021/03/12 01:59:40;;;;;;;5.30;2.28;;;9.40;99.90;;;;;;5030969;28;20219;-80
2021/03/12 02:02:06;;;;;;;5.75;3.25;;;9.40;99.90;;;;;;5025837;28;20651;-79
2021/03/12 02:04:32;;;;;;;3.47;2.17;;;9.30;99.90;;;;;;5029324;28;20345;-79
2021/03/12 02:06:59;;;;;;;4.68;2.83;;;9.40;99.90;;;;;;5029553;28;20218;-80
2021/03/12 02:09:25;;;;;;;2.60;2.40;;;9.40;99.90;;;;;;5029499;28;20222;-80
2021/03/12 02:12:00;;;;;;;8.57;2.40;;;9.40;99.90;;;;;;5031121;28;20209;-82
2021/03/12 02:14:33;;;;;;;2.75;2.47;;;9.50;99.90;;;;;;5029650;28;20218;-80
2021/03/12 02:17:06;;;;;;;4.65;2.45;;;9.40;99.90;;;;;;5028219;28;20196;-80
2021/03/12 02:19:48;;;;;;;5.63;2.72;;;9.30;99.90;;;;;;5029854;28;20641;-79
2021/03/12 02:22:15;;;;;;;4.78;2.90;;;9.30;99.90;;;;;;5030654;28;20212;-80
2021/03/12 02:24:44;;;;;;;4.22;2.60;;;9.30;99.90;;;;;;5029106;28;20231;-80
2021/03/12 02:27:12;;;;;;;6.28;2.83;;;9.30;99.90;;;;;;5029893;28;20257;-79
2021/03/12 02:29:43;;;;;;;4.05;2.58;;;9.20;99.90;;;;;;5029206;28;20191;-78
2021/03/12 02:32:11;;;;;;;5.03;2.70;;;9.20;99.90;;;;;;5028460;28;20310;-80
2021/03/12 02:34:39;;;;;;;3.72;2.45;;;9.20;99.90;;;;;;5030132;28;20219;-80
2021/03/12 02:37:07;;;;;;;2.63;2.40;;;9.20;99.90;;;;;;5021317;28;20218;-80
2021/03/12 02:39:37;;;;;;;2.80;2.20;;;9.20;99.90;;;;;;5029466;28;20572;-80
2021/03/12 02:42:05;;;;;;;3.28;2.75;;;9.10;99.90;;;;;;5030047;28;20555;-80
2021/03/12 02:44:33;;;;;;;4.00;2.83;;;9.20;99.90;;;;;;5029085;28;20214;-80
2021/03/12 02:47:04;;;;;;;2.35;2.15;;;9.10;99.90;;;;;;5029471;28;20215;-80
2021/03/12 02:49:32;;;;;;;2.88;2.10;;;9.10;99.90;;;;;;5029282;28;20195;-80
2021/03/12 02:51:59;;;;;;;4.25;2.72;;;9.10;99.90;;;;;;5030508;28;20188;-80
2021/03/12 02:54:26;;;;;;;4.55;3.70;;;9.10;99.90;;;;;;5029893;28;20287;-78
2021/03/12 02:56:53;;;;;;;3.40;3.05;;;9.10;99.90;;;;;;5030029;28;20731;-80
2021/03/12 02:59:20;;;;;;;6.22;2.70;;;9.10;99.90;;;;;;5029145;28;20228;-80
2021/03/12 03:01:50;;;;;;;4.60;3.05;;;9.10;99.90;;;;;;5029323;28;20226;-79
2021/03/12 03:04:18;;;;;;;4.03;3.10;;;9.00;99.90;;;;;;5028960;28;20277;-80
2021/03/12 03:06:45;;;;;;;7.35;2.47;;;9.00;99.90;;;;;;5010186;28;20765;-80
2021/03/12 03:09:13;;;;;;;3.22;2.50;;;9.20;99.90;;;;;;5020813;28;20230;-79
2021/03/12 03:11:41;;;;;;;4.07;2.65;;;9.10;99.90;;;;;;5025232;28;20223;-80
2021/03/12 03:14:07;;;;;;;4.18;2.47;;;9.00;99.90;;;;;;5028290;28;20213;-80
2021/03/12 03:16:37;;;;;;;5.10;2.95;;;9.00;99.90;;;;;;5018934;28;20207;-79
2021/03/12 03:19:06;;;;;;;3.67;2.85;;;9.00;99.90;;;;;;5028959;28;20276;-80
2021/03/12 03:21:33;;;;;;;3.78;2.22;;;8.90;99.90;;;;;;5030438;28;20258;-79
2021/03/12 03:23:59;;;;;;;3.20;2.88;;;8.80;99.90;;;;;;5039620;28;20207;-79
2021/03/12 03:26:25;;;;;;;3.00;2.58;;;8.90;99.90;;;;;;5029581;28;20222;-80
2021/03/12 03:28:52;;;;;;;3.58;2.53;;;8.90;99.90;;;;;;5029132;28;20203;-79
2021/03/12 03:31:19;;;;;;;6.15;2.90;;;9.00;99.90;;;;;;5029392;28;20219;-79
2021/03/12 03:33:45;;;;;;;5.30;2.85;;;8.90;99.90;;;;;;5030078;28;20219;-79
2021/03/12 03:36:12;;;;;;;11.23;2.95;;;9.00;99.90;;;;;;5021689;28;20502;-80
2021/03/12 03:38:40;;;;;;;4.90;2.40;;;8.90;99.90;;;;;;5030212;28;20578;-80
2021/03/12 03:41:08;;;;;;;3.30;2.45;;;9.10;99.90;;;;;;5028559;28;20196;-80
2021/03/12 03:43:41;;;;;;;3.33;2.67;;;8.90;99.90;;;;;;5026227;28;20219;-80
2021/03/12 03:46:08;;;;;;;3.60;2.90;;;9.00;99.90;;;;;;5026842;28;20199;-80
2021/03/12 03:48:36;;;;;;;3.42;2.60;;;8.80;99.90;;;;;;5029199;28;20226;-80
2021/03/12 03:51:05;;;;;;;3.75;2.97;;;8.80;99.90;;;;;;5022681;28;20236;-80
2021/03/12 03:53:34;;;;;;;5.00;2.40;;;8.90;99.90;;;;;;5028294;28;20270;-79
2021/03/12 03:56:01;;;;;;;4.57;3.10;;;8.80;99.90;;;;;;5028402;28;20200;-80
2021/03/12 03:58:28;;;;;;;3.78;3.45;;;8.70;99.90;;;;;;5029845;28;20191;-80
2021/03/12 04:00:55;;;;;;;4.10;2.60;;;8.90;99.90;;;;;;5027675;28;20229;-78
2021/03/12 04:03:22;;;;;;;6.75;3.20;;;8.70;99.90;;;;;;5028632;28;20211;-79
2021/03/12 04:05:49;;;;;;;5.47;3.60;;;8.80;99.90;;;;;;5027016;28;20223;-81
2021/03/12 04:08:16;;;;;;;5.82;3.80;;;8.70;99.90;;;;;;5028592;28;20202;-80
2021/03/12 04:10:43;;;;;;;6.70;3.80;;;8.90;99.90;;;;;;5029160;28;20222;-81
2021/03/12 04:13:11;;;;;;;5.15;3.35;;;8.80;99.90;;;;;;5028886;28;20211;-80
2021/03/12 04:15:37;;;;;;;5.60;3.72;;;8.80;99.90;;;;;;5022212;28;20642;-81
2021/03/12 04:18:05;;;;;;;6.00;3.40;;;8.70;99.90;;;;;;5028099;28;20227;-80
2021/03/12 04:20:32;;;;;;;9.55;4.13;;;8.80;99.90;;;;;;5025697;28;20682;-81
2021/03/12 04:22:58;;;;;;;7.97;3.70;;;8.80;99.90;;;;;;5024279;28;20211;-80
2021/03/12 04:25:25;;;;;;;4.43;2.65;;;8.80;99.90;;;;;;5028193;28;20215;-79
2021/03/12 04:27:52;;;;;;;6.40;3.15;;;8.90;99.90;;;;;;5011472;28;20192;-78
2021/03/12 04:30:20;;;;;;;9.63;4.63;;;8.80;99.90;;;;;;5027173;28;20748;-79
2021/03/12 04:32:48;;;;;;;3.75;3.03;;;8.80;99.90;;;;;;5027822;28;20223;-80
2021/03/12 04:35:14;;;;;;;4.97;2.92;;;8.70;99.90;;;;;;5026925;28;20243;-80
2021/03/12 04:37:41;;;;;;;5.22;3.50;;;8.80;99.90;;;;;;5010228;28;20659;-79
2021/03/12 04:40:08;;;;;;;5.75;2.63;;;8.80;99.90;;;;;;5012379;28;20262;-79
2021/03/12 04:42:36;;;;;;;4.45;3.45;;;8.70;99.90;;;;;;5019065;28;20701;-79
2021/03/12 04:45:04;;;;;;;3.83;2.78;;;8.80;99.90;;;;;;5027924;28;20253;-79
2021/03/12 04:47:31;;;;;;;2.50;2.25;;;8.70;99.90;;;;;;5028919;28;20199;-81
2021/03/12 04:49:57;;;;;;;6.10;3.05;;;8.70;99.90;;;;;;5031243;28;20242;-78
2021/03/12 04:52:23;;;;;;;5.00;2.92;;;8.70;99.90;;;;;;5032672;28;20192;-80
2021/03/12 04:54:50;;;;;;;5.78;3.38;;;8.90;99.90;;;;;;5030898;28;20849;-80
2021/03/12 04:57:16;;;;;;;5.25;3.25;;;8.80;99.90;;;;;;5028385;28;20643;-80
2021/03/12 04:59:43;;;;;;;4.85;3.05;;;8.70;99.90;;;;;;5030713;28;20227;-80
2021/03/12 05:02:12;;;;;;;6.85;3.47;;;8.70;99.90;;;;;;5024553;28;20219;-79
2021/03/12 05:04:40;;;;;;;3.92;3.10;;;8.70;99.90;;;;;;5030697;28;20223;-79
2021/03/12 05:07:06;;;;;;;3.10;2.90;;;8.70;99.90;;;;;;5031896;28;20195;-80
2021/03/12 05:09:33;;;;;;;4.43;3.00;;;8.80;99.90;;;;;;5031172;28;20257;-80
2021/03/12 05:11:59;;;;;;;6.07;3.80;;;8.70;99.90;;;;;;5015103;28;20216;-81
2021/03/12 05:14:25;;;;;;;3.90;2.50;;;8.70;99.90;;;;;;5023547;28;20216;-80
2021/03/12 05:16:52;;;;;;;5.78;2.95;;;8.90;99.90;;;;;;5031680;28;20223;-81
2021/03/12 05:19:19;;;;;;;8.25;4.60;;;8.70;99.90;;;;;;5032442;28;20237;-82
2021/03/12 05:21:45;;;;;;;6.30;3.05;;;8.70;99.90;;;;;;5032671;28;20191;-81
2021/03/12 05:24:12;;;;;;;7.45;3.30;;;8.70;99.90;;;;;;5014127;28;20227;-81
2021/03/12 05:26:38;;;;;;;9.00;2.65;;;8.60;99.90;;;;;;5031830;28;20247;-81
2021/03/12 05:29:04;;;;;;;3.83;3.03;;;8.60;99.90;;;;;;5028280;28;20247;-81
2021/03/12 05:31:30;;;;;;;4.43;3.05;;;8.60;99.90;;;;;;5030812;28;20216;-81
2021/03/12 05:33:57;;;;;;;6.32;2.90;;;8.70;99.90;;;;;;5031728;28;20223;-81
2021/03/12 05:36:24;;;;;;;5.72;2.65;;;8.70;99.90;;;;;;5029009;28;20852;-81
2021/03/12 05:38:51;;;;;;;3.75;2.38;;;8.60;99.90;;;;;;5030727;28;20215;-81
2021/03/12 05:41:19;;;;;;;5.80;2.85;;;8.60;99.90;;;;;;5030477;28;20223;-80
2021/03/12 05:43:45;;;;;;;9.07;3.05;;;8.60;99.90;;;;;;5032278;28;20204;-81
2021/03/12 05:46:13;;;;;;;7.20;2.85;;;8.60;99.90;;;;;;5026714;28;20199;-81
2021/03/12 05:48:40;;;;;;;5.55;2.50;;;8.70;99.90;;;;;;5026273;28;20238;-80
2021/03/12 05:51:06;;;;;;;6.07;2.83;;;8.60;99.90;;;;;;5029396;28;20883;-81
2021/03/12 05:53:34;;;;;;;6.47;2.88;;;8.50;99.90;;;;;;5029317;28;20581;-80
2021/03/12 05:56:01;;;;;;;5.68;2.58;;;8.50;99.90;;;;;;5023653;28;20257;-81
2021/03/12 05:58:28;;;;;;;7.32;2.10;;;8.60;99.90;;;;;;5031144;28;20598;-81
2021/03/12 06:00:54;;;;;;;2.83;2.17;;;8.50;99.90;;;;;;5028833;28;20268;-81
2021/03/12 06:03:20;;;;;;;6.30;3.15;;;8.60;99.90;;;;;;5029919;28;20277;-80
2021/03/12 06:05:48;;;;;;;4.30;2.67;;;8.50;99.90;;;;;;5029655;28;20286;-81
2021/03/12 06:08:14;;;;;;;2.90;2.63;;;8.50;99.90;;;;;;5030481;28;20227;-80
2021/03/12 06:10:42;;;;;;;6.82;3.00;;;8.50;99.90;;;;;;5026355;28;20254;-80
2021/03/12 06:13:08;;;;;;;2.95;1.98;;;8.60;99.90;;;;;;5030369;28;20215;-80
2021/03/12 06:15:36;;;;;;;4.78;2.45;;;8.50;99.90;;;;;;5029580;28;20219;-81
2021/03/12 06:18:20;;;;;;;3.47;2.20;;;8.50;99.90;;;;;;5029975;28;20231;-80
2021/03/12 06:20:47;;;;;;;5.78;2.30;;;8.50;99.90;;;;;;5024043;28;20230;-80
2021/03/12 06:23:31;;;;;;;6.20;2.22;;;8.50;99.90;;;;;;5028202;28;20294;-81
2021/03/12 06:25:58;;;;;;;5.38;2.50;;;8.40;99.90;;;;;;5021665;28;20267;-81
2021/03/12 06:28:24;;;;;;;4.65;2.22;;;8.50;99.90;;;;;;5020274;28;20214;-78
2021/03/12 06:30:52;;;;;;;4.60;2.33;;;8.50;99.90;;;;;;5030678;28;20199;-81
2021/03/12 06:33:29;;;;;;;6.40;3.05;;;8.50;99.90;;;;;;5030283;28;20265;-80
2021/03/12 06:35:56;;;;;;;4.22;2.50;;;8.40;99.90;;;;;;5029609;28;20195;-80
2021/03/12 06:38:22;;;;;;;4.43;2.63;;;8.70;99.90;;;;;;5030918;28;20238;-81
2021/03/12 06:40:48;;;;;;;3.50;2.50;;;8.60;99.90;;;;;;5015433;28;20687;-82
2021/03/12 06:43:17;;;;;;;4.00;2.85;;;8.60;99.90;;;;;;5031299;28;20206;-81
2021/03/12 06:45:57;;;;;;;5.05;3.00;;;8.80;99.90;;;;;;5029064;28;20195;-81
2021/03/12 06:48:26;;;;;;;4.63;3.35;;;8.60;99.90;;;;;;5027923;28;20716;-81
2021/03/12 06:50:54;;;;;;;5.40;3.00;;;8.80;99.90;;;;;;5025721;28;20239;-81
2021/03/12 06:53:25;;;;;;;3.50;2.35;;;8.70;99.90;;;;;;5029145;28;20200;-81
2021/03/12 06:55:52;;;;;;;4.45;2.97;;;8.80;99.90;;;;;;5029341;28;20211;-81
2021/03/12 06:58:19;;;;;;;3.63;3.00;;;8.80;99.90;;;;;;5024223;28;20219;-80
2021/03/12 07:00:46;;;;;;;3.97;2.63;;;8.80;99.90;;;;;;5029221;28;20277;-80
2021/03/12 07:03:20;;;;;;;5.47;2.55;;;8.80;99.90;;;;;;5028286;28;20219;-80
2021/03/12 07:05:58;;;;;;;9.45;2.60;;;8.80;99.90;;;;;;5025783;28;20274;-80
2021/03/12 07:08:32;;;;;;;4.95;3.00;;;8.70;99.90;;;;;;5029001;28;20234;-80
2021/03/12 07:10:58;;;;;;;2.42;2.22;;;8.70;99.90;;;;;;5029575;28;20194;-80
2021/03/12 07:13:26;;;;;;;4.47;2.45;;;8.70;99.90;;;;;;5029304;28;20218;-79
2021/03/12 07:15:54;;;;;;;4.75;2.33;;;8.80;99.90;;;;;;5025759;28;20219;-79
2021/03/12 07:18:21;;;;;;;4.72;2.35;;;8.90;99.90;;;;;;5026976;28;20216;-79
2021/03/12 07:20:47;;;;;;;6.85;2.63;;;9.00;99.90;;;;;;5023960;28;20227;-79
2021/03/12 07:23:15;;;;;;;7.63;2.25;;;9.00;99.90;;;;;;5022396;28;20204;-81
2021/03/12 07:25:44;;;;;;;3.80;2.38;;;9.10;99.90;;;;;;5020116;28;20280;-79
2021/03/12 07:28:14;;;;;;;3.70;1.98;;;9.00;99.90;;;;;;5029893;28;20215;-78
2021/03/12 07:30:42;;;;;;;5.65;2.25;;;9.00;99.90;;;;;;5021320;28;20293;-77
2021/03/12 07:33:09;;;;;;;2.45;1.90;;;9.00;99.90;;;;;;5017908;28;20270;-78
2021/03/12 07:35:37;;;;;;;4.50;2.13;;;9.00;99.90;;;;;;5018326;28;20249;-76
2021/03/12 07:38:06;;;;;;;6.95;2.00;;;9.10;99.90;;;;;;5018656;28;20212;-76
2021/03/12 07:40:32;;;;;;;4.45;2.17;;;9.10;99.90;;;;;;5023066;28;20245;-75
2021/03/12 07:43:00;;;;;;;5.75;2.60;;;9.10;99.90;;;;;;5020883;28;20659;-75
2021/03/12 07:45:27;;;;;;;3.22;1.65;;;9.10;99.90;;;;;;5020673;28;20219;-74
2021/03/12 07:47:54;;;;;;;7.20;3.05;;;9.10;99.90;;;;;;5021904;28;20195;-75
2021/03/12 07:50:26;;;;;;;7.55;2.60;;;9.10;99.90;;;;;;5020245;28;20238;-75
2021/03/12 07:52:53;;;;;;;7.75;2.47;;;9.10;99.90;;;;;;5022438;28;20574;-75
2021/03/12 07:55:51;;;;;;;3.13;2.13;;;9.20;99.90;;;;;;5018732;28;20395;-75
2021/03/12 07:58:48;;;;;;;4.07;1.75;;;9.20;99.90;;;;;;5021197;28;20281;-74
2021/03/12 08:01:14;;;;;;;4.57;2.67;;;9.20;99.90;;;;;;5026543;28;20212;-74
2021/03/12 08:03:42;;;;;;;6.50;2.22;;;9.20;99.90;;;;;;5023661;28;20192;-74
2021/03/12 08:06:31;;;;;;;4.35;2.10;;;9.20;99.90;;;;;;5026768;28;20224;-74
2021/03/12 08:08:57;;;;;;;4.60;2.30;;;9.20;99.90;;;;;;5027088;28;20212;-74
2021/03/12 08:11:25;;;;;;;7.40;2.95;;;9.20;99.90;;;;;;5027585;28;20290;-75
2021/03/12 08:13:52;;;;;;;6.00;2.47;;;9.20;99.90;;;;;;5026945;28;20694;-75
2021/03/12 08:16:19;;;;;;;8.45;3.03;;;9.20;99.90;;;;;;5011696;28;20227;-75
2021/03/12 08:18:46;;;;;;;6.38;2.40;;;9.20;99.90;;;;;;5010526;28;20192;-75
2021/03/12 08:21:32;;;;;;;8.15;3.20;;;9.20;99.90;;;;;;5022251;28;20837;-75
2021/03/12 08:23:58;;;;;;;4.03;2.42;;;9.20;99.90;;;;;;5033121;28;21015;-75
2021/03/12 08:26:50;;;;;;;12.05;3.53;;;9.20;99.90;;;;;;5031787;28;20578;-75
2021/03/12 08:29:34;;;;;;;6.60;2.58;;;9.20;99.90;;;;;;5029763;28;20230;-75
2021/03/12 08:32:00;;;;;;;9.50;3.10;;;9.20;99.90;;;;;;5033050;28;20203;-75
2021/03/12 08:34:38;;;;;;;7.47;3.13;;;9.20;99.90;;;;;;5032325;28;20188;-79
2021/03/12 08:37:42;;;;;;;6.10;2.80;;;9.20;99.90;;;;;;5022420;28;20281;-76
2021/03/12 08:40:29;;;;;;;6.32;2.88;;;9.10;99.90;;;;;;5013728;28;20219;-78
2021/03/12 08:42:57;;;;;;;5.78;2.90;;;9.20;99.90;;;;;;5021695;28;20206;-77
2021/03/12 08:45:37;;;;;;;6.28;3.13;;;9.20;99.90;;;;;;5030977;28;20219;-80
2021/03/12 08:48:06;;;;;;;6.78;3.35;;;9.20;99.90;;;;;;5019052;28;20243;-77
2021/03/12 08:50:34;;;;;;;7.28;2.90;;;9.20;99.90;;;;;;5025161;28;20234;-76
2021/03/12 08:53:00;;;;;;;3.63;2.63;;;9.10;99.90;;;;;;5030926;28;20254;-77
2021/03/12 08:55:26;;;;;;;5.43;2.53;;;9.30;99.90;;;;;;5027759;28;20551;-77
2021/03/12 08:58:11;;;;;;;4.32;2.40;;;9.40;99.90;;;;;;5023204;28;20215;-77
2021/03/12 09:00:37;;;;;;;4.30;2.53;;;9.30;99.90;;;;;;5011478;28;20236;-76
2021/03/12 09:03:20;;;;;;;8.05;3.35;;;9.20;99.90;;;;;;5024842;28;20221;-77
2021/03/12 09:05:49;;;;;;;9.70;3.80;;;9.10;99.90;;;;;;5031137;28;20241;-77
2021/03/12 09:08:21;;;;;;;10.85;3.70;;;9.10;99.90;;;;;;5025569;28;20196;-76
2021/03/12 09:10:47;;;;;;;2.85;2.40;;;9.20;99.90;;;;;;5020507;28;20245;-76
2021/03/12 09:13:16;;;;;;;9.68;2.92;;;9.10;99.90;;;;;;5027490;28;20234;-76
2021/03/12 09:15:42;;;;;;;7.70;2.58;;;9.20;99.90;;;;;;5032621;28;20224;-77
2021/03/12 09:18:09;;;;;;;6.30;2.80;;;9.20;99.90;;;;;;5028175;28;20192;-77
2021/03/12 09:20:35;;;;;;;8.68;2.72;;;9.20;99.90;;;;;;5031302;28;20278;-77
2021/03/12 09:23:02;;;;;;;6.95;2.90;;;9.20;99.90;;;;;;5016675;28;20228;-77
2021/03/12 09:25:30;;;;;;;8.77;2.58;;;9.20;99.90;;;;;;5018336;28;20262;-77
2021/03/12 09:27:59;;;;;;;3.35;2.35;;;9.20;99.90;;;;;;5017009;28;20228;-76
2021/03/12 09:30:26;;;;;;;6.10;2.53;;;9.20;99.90;;;;;;5031046;28;20268;-77
2021/03/12 09:32:52;;;;;;;9.27;2.90;;;9.30;99.90;;;;;;5018424;28;20200;-77
2021/03/12 09:35:20;;;;;;;13.02;2.83;;;9.20;99.90;;;;;;5012576;28;20220;-77
2021/03/12 09:37:46;;;;;;;14.90;3.05;;;9.20;99.90;;;;;;5030258;28;20211;-76
2021/03/12 09:40:30;;;;;;;4.30;2.58;;;9.30;99.90;;;;;;5020852;28;20711;-75
2021/03/12 09:42:56;;;;;;;4.30;2.63;;;9.50;99.90;;;;;;5022733;28;20205;-75
2021/03/12 09:45:25;;;;;;;7.80;2.58;;;9.50;99.90;;;;;;5031731;28;20192;-76
2021/03/12 09:47:52;;;;;;;5.90;2.67;;;9.40;99.90;;;;;;5028006;28;20220;-76
2021/03/12 09:50:21;;;;;;;9.85;3.25;;;9.50;99.90;;;;;;5031944;28;20318;-75
2021/03/12 09:52:49;;;;;;;10.73;2.92;;;9.60;99.90;;;;;;5025170;28;20220;-76
2021/03/12 09:55:16;;;;;;;5.10;2.45;;;9.70;99.90;;;;;;5022520;28;20273;-76
2021/03/12 09:57:43;;;;;;;9.68;2.67;;;9.60;99.90;;;;;;5031997;28;20215;-76
2021/03/12 10:00:10;;;;;;;10.27;2.78;;;9.50;99.90;;;;;;5014751;28;20252;-75
2021/03/12 10:02:49;;;;;;;5.32;2.13;;;9.70;99.90;;;;;;5026346;28;20226;-76
2021/03/12 10:05:18;;;;;;;7.90;2.03;;;9.80;99.90;;;;;;5027444;28;20223;-76
2021/03/12 10:07:46;;;;;;;4.70;2.50;;;9.80;99.90;;;;;;5030789;28;20557;-76
2021/03/12 10:10:16;;;;;;;9.63;2.40;;;9.80;99.90;;;;;;5030878;28;20222;-75
2021/03/12 10:12:44;;;;;;;10.82;2.55;;;9.80;99.90;;;;;;5031482;28;20289;-76
2021/03/12 10:15:13;;;;;;;6.40;2.33;;;9.90;99.90;;;;;;5022769;28;20692;-75
2021/03/12 10:17:40;;;;;;;4.57;2.08;;;10.00;99.90;;;;;;5015096;28;20203;-75
2021/03/12 10:20:08;;;;;;;8.50;2.80;;;10.00;99.90;;;;;;5030586;28;20620;-75
2021/03/12 10:22:37;;;;;;;7.97;2.70;;;10.00;99.90;;;;;;5021727;28;20856;-75
2021/03/12 10:25:09;;;;;;;10.02;3.10;;;10.10;99.90;;;;;;5026891;28;20223;-76
2021/03/12 10:27:37;;;;;;;4.50;2.08;;;10.10;99.90;;;;;;5024111;28;20219;-75
2021/03/12 10:30:09;;;;;;;6.22;2.70;;;9.90;99.90;;;;;;5023460;28;20192;-75
2021/03/12 10:32:42;;;;;;;10.45;3.17;;;9.80;99.90;;;;;;5030374;28;20202;-75
2021/03/12 10:35:30;;;;;;;6.70;2.60;;;9.80;99.90;;;;;;5030647;28;20207;-75
2021/03/12 10:37:59;;;;;;;6.43;2.13;;;9.70;99.90;;;;;;5016694;28;20214;-77
2021/03/12 10:40:27;;;;;;;5.20;1.85;;;9.80;99.90;;;;;;5030772;28;20219;-77
2021/03/12 10:42:55;;;;;;;8.88;2.10;;;9.90;99.90;;;;;;5031192;28;20250;-77
2021/03/12 10:45:26;;;;;;;6.10;2.58;;;10.00;99.90;;;;;;5030954;28;20219;-77
2021/03/12 10:48:06;;;;;;;8.43;3.05;;;10.00;99.90;;;;;;5027275;28;20622;-77
2021/03/12 10:50:35;;;;;;;4.40;2.00;;;10.10;99.90;;;;;;5021844;28;20227;-78
2021/03/12 10:53:10;;;;;;;7.00;2.22;;;10.20;99.90;;;;;;5025257;28;20223;-76
2021/03/12 10:55:40;;;;;;;10.48;2.40;;;10.10;99.90;;;;;;5022493;28;20636;-77
2021/03/12 10:58:06;;;;;;;9.07;2.53;;;10.10;99.90;;;;;;5028093;28;20220;-76
2021/03/12 11:00:33;;;;;;;6.13;2.00;;;10.10;99.90;;;;;;5026969;28;20706;-77
2021/03/12 11:03:02;;;;;;;4.78;1.80;;;10.10;99.90;;;;;;5027472;28;20241;-76
2021/03/12 11:05:30;;;;;;;6.10;2.35;;;10.10;99.90;;;;;;5026178;28;20202;-77
2021/03/12 11:07:56;;;;;;;7.15;2.67;;;10.20;99.90;;;;;;5020509;28;20216;-76
2021/03/12 11:10:23;;;;;;;6.05;1.98;;;10.20;99.90;;;;;;5030275;28;20211;-76
2021/03/12 11:12:52;;;;;;;7.15;2.28;;;10.20;99.90;;;;;;5030156;28;20292;-76
2021/03/12 11:15:21;;;;;;;8.00;3.10;;;10.30;99.90;;;;;;5019486;28;20681;-77
2021/03/12 11:17:48;;;;;;;9.80;2.88;;;10.10;99.90;;;;;;5030239;28;20234;-77
2021/03/12 11:20:19;;;;;;;18.02;2.55;;;10.20;99.90;;;;;;5011571;28;20228;-77
2021/03/12 11:22:45;;;;;;;9.73;3.45;;;10.30;99.90;;;;;;5018111;28;20552;-77
2021/03/12 11:25:13;;;;;;;8.43;2.38;;;10.20;99.90;;;;;;5029951;28;20222;-77
2021/03/12 11:27:39;;;;;;;2.85;1.52;;;10.30;99.90;;;;;;5019579;28;20279;-76
2021/03/12 11:30:09;;;;;;;10.05;3.15;;;10.30;99.90;;;;;;5014855;28;20199;-76
2021/03/12 11:32:35;;;;;;;9.02;2.50;;;10.20;99.90;;;;;;5030423;28;20215;-78
2021/03/12 11:35:04;;;;;;;4.90;1.95;;;10.30;99.90;;;;;;5029403;28;20427;-78
2021/03/12 11:37:30;;;;;;;8.75;2.90;;;10.30;99.90;;;;;;5029294;28;20195;-77
2021/03/12 11:39:57;;;;;;;7.97;2.55;;;10.30;99.90;;;;;;5015548;28;20219;-77
2021/03/12 11:42:23;;;;;;;8.75;2.22;;;10.20;99.90;;;;;;5029938;28;20203;-77
2021/03/12 11:44:49;;;;;;;8.10;2.33;;;10.20;99.90;;;;;;5027574;28;20219;-77
2021/03/12 11:47:16;;;;;;;7.10;1.80;;;10.40;99.90;;;;;;5018593;28;20536;-77
2021/03/12 11:49:45;;;;;;;12.60;2.55;;;10.50;99.90;;;;;;5029819;28;20308;-77
2021/03/12 11:52:13;;;;;;;6.72;2.08;;;10.50;99.90;;;;;;5012919;28;20212;-77
2021/03/12 11:54:39;;;;;;;12.63;3.20;;;10.50;99.90;;;;;;5023492;28;20219;-76
2021/03/12 11:57:06;;;;;;;10.75;2.80;;;10.50;99.90;;;;;;5014971;28;20401;-76
2021/03/12 11:59:33;;;;;;;9.98;2.80;;;10.50;99.90;;;;;;5027937;28;20697;-77
2021/03/12 12:02:00;;;;;;;3.85;2.28;;;10.50;99.90;;;;;;5027267;28;20241;-76
2021/03/12 12:04:27;;;;;;;5.93;2.22;;;10.50;99.90;;;;;;5032830;28;20241;-76
2021/03/12 12:06:53;;;;;;;9.48;2.40;;;10.50;99.90;;;;;;5032499;28;20698;-77
2021/03/12 12:09:20;;;;;;;9.05;2.72;;;10.50;99.90;;;;;;5022405;28;20230;-76
2021/03/12 12:11:47;;;;;;;6.53;2.28;;;10.60;99.90;;;;;;5032712;28;20261;-77
2021/03/12 12:14:14;;;;;;;3.00;1.30;;;10.60;99.90;;;;;;5031736;28;20207;-77
2021/03/12 12:16:40;;;;;;;4.90;1.98;;;10.70;99.90;;;;;;5013496;28;20220;-77
2021/03/12 12:19:11;;;;;;;3.95;1.65;;;10.70;99.90;;;;;;5031780;28;20234;-76
2021/03/12 12:21:37;;;;;;;6.95;1.75;;;10.80;99.90;;;;;;5033039;28;20294;-77
2021/03/12 12:24:05;;;;;;;6.85;1.85;;;10.80;99.90;;;;;;5023160;28;20196;-76
2021/03/12 12:26:33;;;;;;;7.88;1.60;;;10.80;99.90;;;;;;5014086;28;20262;-76
2021/03/12 12:28:59;;;;;;;4.78;1.60;;;10.80;99.90;;;;;;5018554;28;20288;-77
2021/03/12 12:31:25;;;;;;;5.75;1.70;;;10.80;99.90;;;;;;5032595;28;20218;-76
2021/03/12 12:33:51;;;;;;;5.68;2.00;;;10.80;99.90;;;;;;5017875;28;20299;-76
2021/03/12 12:36:18;;;;;;;6.40;2.00;;;10.80;99.90;;;;;;5017219;28;20532;-76
2021/03/12 12:38:44;;;;;;;10.25;2.10;;;10.80;99.90;;;;;;5032809;28;20204;-76
2021/03/12 12:41:10;;;;;;;5.35;1.77;;;10.80;99.90;;;;;;5030870;28;20223;-76
2021/03/12 12:43:37;;;;;;;5.45;1.55;;;10.80;99.90;;;;;;5031456;28;20211;-76
2021/03/12 12:46:03;;;;;;;15.10;2.15;;;10.80;99.90;;;;;;5032758;28;20219;-76
2021/03/12 12:48:30;;;;;;;6.75;1.70;;;10.80;99.90;;;;;;5022794;28;20202;-77
2021/03/12 12:50:56;;;;;;;8.13;2.38;;;10.80;99.90;;;;;;5032666;28;20606;-76
2021/03/12 12:53:22;;;;;;;5.57;1.60;;;10.90;99.90;;;;;;5026836;28;20212;-76
2021/03/12 12:55:48;;;;;;;7.78;2.30;;;10.90;99.90;;;;;;5016052;28;20218;-77
2021/03/12 12:58:14;;;;;;;8.32;2.47;;;10.90;99.90;;;;;;5021454;28;20253;-76
2021/03/12 13:00:41;;;;;;;4.05;1.70;;;10.90;99.90;;;;;;5029314;28;20310;-76
2021/03/12 13:03:08;;;;;;;6.53;2.17;;;10.90;99.90;;;;;;5030700;28;20214;-76